»·PEaware :: QXE548 KPDX-KBZN

QXE548 :: KPDX-KBZN

FLIGHT INFORMATION

Flight Status: Arrived
Operator:
Horizon Air
More flights by this operator :: More flights under this callsign
Pilot: Matthew M. (2702)
Aircraft: DEHAVILLAND DASH 8 400
(DH8D)
More flights by this aircraft type
Origin: KPDX Portland Intl
United States
Destination: KBZN Gallatin
United States
More flights between these airports :: More routes between these airports
Route: BTG J16 HIA V86 BZN
File this flight plan on PilotEdge
Remarks: PBN / D1 DOF / 170405 REG / N442QX EET / KZLC0100 OPR / QXE RMK / TCAS SIMBRIEF
Altitude:
(Current/Filed)
25,000ft
Speed:
(Current/Filed)
325kts
Departed: 04-Apr-17 08:06 PM
Arrived: 04-Apr-17 09:37 PM
Distance/Time
Traveled:
479nm/1:31
Distance/Time
To Go:
Arrived

Flight Plot

Page will automatically refresh every two minutes.

Flight plan parsing failed; only flown route is shown


Map Options




Map Legend


Flown Route
Filed Route
Departure Airport
Arrival Airport
Navaid (VOR, NDB)
Fix

Horizontal Profiles

Position Reports

Time Latitude Longitude Heading Altitude Ground
Speed
04-Apr-17 19:22 45.585001 -122.589955 28 37ft 0kts
04-Apr-17 19:23 45.585001 -122.589955 28 37ft 0kts
04-Apr-17 19:24 45.585001 -122.589955 28 37ft 0kts
04-Apr-17 19:25 45.585001 -122.589955 28 37ft 0kts
04-Apr-17 19:26 45.585001 -122.589955 28 37ft 0kts
04-Apr-17 19:27 45.585001 -122.589955 28 37ft 0kts
04-Apr-17 19:28 45.585001 -122.589955 28 37ft 0kts
04-Apr-17 19:29 45.585001 -122.589955 28 37ft 0kts
04-Apr-17 19:30 45.585001 -122.589955 28 37ft 0kts
04-Apr-17 19:31 45.585001 -122.589955 28 37ft 0kts
04-Apr-17 19:32 45.585001 -122.589955 28 37ft 0kts
04-Apr-17 19:33 45.585001 -122.589955 28 37ft 0kts
04-Apr-17 19:34 45.585001 -122.589955 28 37ft 0kts
04-Apr-17 19:35 45.585001 -122.589955 28 37ft 0kts
04-Apr-17 19:36 45.585001 -122.589955 28 37ft 0kts
04-Apr-17 19:37 45.585001 -122.589955 28 37ft 0kts
04-Apr-17 19:38 45.585001 -122.589955 28 37ft 0kts
04-Apr-17 19:39 45.585001 -122.589955 28 37ft 0kts
04-Apr-17 19:40 45.585001 -122.589955 28 37ft 0kts
04-Apr-17 19:41 45.585001 -122.589955 28 37ft 0kts
04-Apr-17 19:42 45.585001 -122.589955 28 37ft 0kts
04-Apr-17 19:43 45.585001 -122.589955 28 37ft 0kts
04-Apr-17 19:44 45.585001 -122.589955 28 37ft 0kts
04-Apr-17 19:45 45.585001 -122.589955 28 37ft 0kts
04-Apr-17 19:46 45.585001 -122.589955 28 37ft 0kts
04-Apr-17 19:47 45.585001 -122.589955 28 37ft 0kts
04-Apr-17 19:48 45.585001 -122.589955 28 37ft 0kts
04-Apr-17 19:49 45.585001 -122.589955 28 37ft 0kts
04-Apr-17 19:50 45.585001 -122.589955 28 37ft 0kts
04-Apr-17 19:51 45.585001 -122.589955 28 37ft 0kts
04-Apr-17 19:52 45.584900 -122.590035 27 37ft 2kts
04-Apr-17 19:53 45.584312 -122.590266 332 37ft 2kts
04-Apr-17 19:54 45.584167 -122.589999 298 37ft 0kts
04-Apr-17 19:55 45.584167 -122.589999 298 37ft 0kts
04-Apr-17 19:56 45.584167 -122.589999 298 37ft 0kts
04-Apr-17 19:57 45.584167 -122.589999 298 37ft 0kts
04-Apr-17 19:58 45.584167 -122.589999 298 37ft 0kts
04-Apr-17 19:59 45.584167 -122.589999 298 37ft 0kts
04-Apr-17 20:00 45.584167 -122.589999 298 37ft 0kts
04-Apr-17 20:01 45.584704 -122.591364 299 37ft 19kts
04-Apr-17 20:02 45.588276 -122.600495 299 37ft 26kts
04-Apr-17 20:03 45.590771 -122.603037 48 37ft 16kts
04-Apr-17 20:04 45.594620 -122.597361 47 37ft 0kts
04-Apr-17 20:05 45.594679 -122.597267 48 37ft 0kts
04-Apr-17 20:06 45.595052 -122.596476 90 37ft 8kts
04-Apr-17 20:07 45.586673 -122.573908 114 493ft 129kts
04-Apr-17 20:08 45.566723 -122.522368 118 2637ft 170kts
04-Apr-17 20:09 45.552464 -122.453319 96 5167ft 193kts
04-Apr-17 20:10 45.549114 -122.372803 94 7820ft 211kts
04-Apr-17 20:11 45.549113 -122.284209 90 10266ft 233kts
04-Apr-17 20:12 45.555608 -122.187954 88 12270ft 249kts
04-Apr-17 20:13 45.563579 -122.085025 85 13599ft 271kts
04-Apr-17 20:14 45.572160 -121.976156 85 14814ft 276kts
04-Apr-17 20:15 45.580562 -121.866922 85 15626ft 279kts
04-Apr-17 20:16 45.589037 -121.755420 85 16431ft 281kts
04-Apr-17 20:17 45.597566 -121.642789 86 17191ft 284kts
04-Apr-17 20:18 45.606054 -121.529181 86 17971ft 286kts
04-Apr-17 20:19 45.614438 -121.414840 86 18718ft 290kts
04-Apr-17 20:20 45.622846 -121.298255 86 19441ft 294kts
04-Apr-17 20:21 45.631114 -121.181733 86 20097ft 298kts
04-Apr-17 20:22 45.639409 -121.063098 86 20729ft 302kts
04-Apr-17 20:23 45.647690 -120.942636 86 21303ft 305kts
04-Apr-17 20:24 45.655926 -120.821294 86 21851ft 308kts
04-Apr-17 20:25 45.663974 -120.700696 86 22343ft 311kts
04-Apr-17 20:26 45.672138 -120.576233 86 22814ft 314kts
04-Apr-17 20:27 45.680249 -120.451273 86 23303ft 316kts
04-Apr-17 20:28 45.688322 -120.324728 86 23744ft 320kts
04-Apr-17 20:29 45.696329 -120.197615 86 24199ft 322kts
04-Apr-17 20:30 45.704206 -120.069336 85 24614ft 324kts
04-Apr-17 20:31 45.711971 -119.941917 85 25029ft 324kts
04-Apr-17 20:32 45.719879 -119.810713 85 25084ft 336kts
04-Apr-17 20:33 45.718057 -119.674809 94 25086ft 345kts
04-Apr-17 20:34 45.714204 -119.536082 92 25086ft 352kts
04-Apr-17 20:35 45.710997 -119.398185 93 25087ft 357kts
04-Apr-17 20:36 45.707198 -119.255791 92 25087ft 360kts
04-Apr-17 20:37 45.703325 -119.112574 92 25082ft 362kts
04-Apr-17 20:38 45.699192 -118.967900 92 25066ft 364kts
04-Apr-17 20:39 45.703893 -118.823696 83 25056ft 364kts
04-Apr-17 20:40 45.712159 -118.679613 84 25059ft 364kts
04-Apr-17 20:41 45.719258 -118.535233 84 25074ft 364kts
04-Apr-17 20:42 45.726519 -118.390311 84 25088ft 363kts
04-Apr-17 20:43 45.733721 -118.242127 84 25103ft 363kts
04-Apr-17 20:44 45.740653 -118.095756 84 25103ft 363kts
04-Apr-17 20:45 45.747327 -117.949998 84 25105ft 363kts
04-Apr-17 20:46 45.753955 -117.801689 84 25112ft 363kts
04-Apr-17 20:47 45.760178 -117.653719 84 25111ft 363kts
04-Apr-17 20:48 45.766063 -117.509103 84 25112ft 363kts
04-Apr-17 20:49 45.771951 -117.365122 84 25113ft 363kts
04-Apr-17 20:50 45.777626 -117.221392 84 25114ft 363kts
04-Apr-17 20:51 45.783089 -117.077179 83 25118ft 363kts
04-Apr-17 20:52 45.788402 -116.933069 83 25127ft 362kts
04-Apr-17 20:53 45.793564 -116.789234 82 25130ft 363kts
04-Apr-17 20:54 45.798573 -116.644589 82 25132ft 364kts
04-Apr-17 20:55 45.803314 -116.501893 82 25134ft 365kts
04-Apr-17 20:56 45.807968 -116.356687 82 25136ft 365kts
04-Apr-17 20:57 45.812445 -116.212127 81 25138ft 365kts
04-Apr-17 20:58 45.816612 -116.068480 81 25139ft 365kts
04-Apr-17 20:59 45.820796 -115.923002 81 25142ft 366kts
04-Apr-17 21:00 45.824675 -115.776942 81 25147ft 366kts
04-Apr-17 21:01 45.828318 -115.632364 82 25164ft 365kts
04-Apr-17 21:02 45.831869 -115.487466 82 25189ft 365kts
04-Apr-17 21:03 45.835165 -115.342436 81 25189ft 365kts
04-Apr-17 21:04 45.838333 -115.196431 81 25188ft 365kts
04-Apr-17 21:05 45.840962 -115.053624 81 25186ft 365kts
04-Apr-17 21:06 45.843644 -114.907988 81 25184ft 365kts
04-Apr-17 21:07 45.846324 -114.762431 81 25182ft 365kts
04-Apr-17 21:08 45.848732 -114.617102 80 25182ft 365kts
04-Apr-17 21:09 45.850967 -114.472106 80 25181ft 365kts
04-Apr-17 21:10 45.853089 -114.327041 80 25180ft 365kts
04-Apr-17 21:11 45.854877 -114.181851 80 25178ft 365kts
04-Apr-17 21:12 45.856645 -114.036433 80 25171ft 365kts
04-Apr-17 21:13 45.858116 -113.890800 80 25168ft 365kts
04-Apr-17 21:14 45.859422 -113.745690 81 25162ft 365kts
04-Apr-17 21:15 45.860526 -113.602997 81 25161ft 365kts
04-Apr-17 21:16 45.861481 -113.457652 81 25160ft 365kts
04-Apr-17 21:17 45.862199 -113.312460 81 25159ft 365kts
04-Apr-17 21:18 45.862746 -113.167947 81 25159ft 365kts
04-Apr-17 21:19 45.863205 -113.023537 81 25158ft 366kts
04-Apr-17 21:20 45.863476 -112.876907 81 24577ft 378kts
04-Apr-17 21:21 45.863949 -112.726710 84 22664ft 383kts
04-Apr-17 21:22 45.863504 -112.576548 85 20768ft 372kts
04-Apr-17 21:23 45.863131 -112.431712 85 18998ft 361kts
04-Apr-17 21:24 45.862633 -112.290635 86 17281ft 352kts
04-Apr-17 21:25 45.863176 -112.158224 80 15670ft 329kts
04-Apr-17 21:26 45.880601 -112.039183 75 14186ft 287kts
04-Apr-17 21:27 45.896460 -111.929452 76 12839ft 290kts
04-Apr-17 21:28 45.912870 -111.812773 78 11394ft 306kts
04-Apr-17 21:29 45.929728 -111.691889 79 9875ft 311kts
04-Apr-17 21:30 45.946124 -111.573851 79 8410ft 288kts
04-Apr-17 21:31 45.940585 -111.484608 106 7954ft 239kts
04-Apr-17 21:32 45.923930 -111.395134 106 7609ft 227kts
04-Apr-17 21:33 45.897268 -111.319839 136 7212ft 213kts
04-Apr-17 21:34 45.859033 -111.265344 138 6311ft 156kts
04-Apr-17 21:35 45.828416 -111.222773 137 5601ft 160kts
04-Apr-17 21:36 45.800510 -111.183879 137 4729ft 118kts
04-Apr-17 21:37 45.778104 -111.152596 136 4479ft 63kts
04-Apr-17 21:38 45.774461 -111.150331 228 4479ft 2kts
04-Apr-17 21:39 45.775978 -111.153734 315 4479ft 18kts
04-Apr-17 21:40 45.778116 -111.158065 262 4479ft 10kts
04-Apr-17 21:41 45.778345 -111.159197 259 4478ft 0kts
04-Apr-17 21:42 45.778354 -111.159116 259 4478ft 0kts
04-Apr-17 21:43 45.778363 -111.159043 260 4478ft 1kts
04-Apr-17 21:44 45.778236 -111.159700 249 4478ft 0kts
04-Apr-17 21:45 45.778236 -111.159700 249 4478ft 0kts
04-Apr-17 21:46 45.778236 -111.159700 249 4478ft 0kts
04-Apr-17 21:47 45.778236 -111.159700 249 4478ft 0kts
04-Apr-17 21:48 45.778236 -111.159700 249 4478ft 0kts
04-Apr-17 21:49 45.778236 -111.159700 249 4478ft 0kts
04-Apr-17 21:50 45.778240 -111.159691 249 4478ft 0kts
04-Apr-17 21:51 45.778240 -111.159691 249 4478ft 0kts
04-Apr-17 21:52 45.778240 -111.159691 249 4478ft 0kts
04-Apr-17 21:53 45.778240 -111.159691 249 4478ft 0kts

Navigation Log

Ident Type
Flight plan parsing failed, navigation log unavailable